Latest Weather Observations for Thargomindah

IDQ60801

Issued at 10:02 am EST Tuesday 7 December 2021 (issued every 10 minutes, with the page automatically refreshed every 10 minutes)

About weather observations | Map of weather stations | Latest weather observations for QLD | Other Formats
Station Details ID: 045025 Name: THARGOMINDAH AIRPORT Lat: -27.99 Lon: 143.81 Height: 130.89 m
Data from the previous 72 hours. | See also: Recent months at Thargomindah
Date/Time
EST
Temp
°C
App
Temp
°C
Dew
Point
°C
Rel
Hum
%
Delta-T
°C
Wind Press
QNH
hPa
Press
MSL
hPa
Rain since
9am
mm
Dir  Spd
km/h
Gust
km/h
Spd
kts
Gust
kts
07/10:00am 30.5 29.4 14.2 37 9.9 NNW 13 19 7 10 1010.6 1009.6 0.0
07/09:30am 29.9 29.1 16.0 43 8.7 NNW 15 22 8 12 1010.8 1009.8 0.0
07/09:00am 28.6 27.9 16.5 48 7.6 NNW 15 22 8 12 1010.8 1009.8 0.0
07/08:30am 27.5 26.6 16.8 52 6.7 N 17 24 9 13 1011.0 1010.1 0.0
07/08:00am 27.1 25.3 17.0 54 6.3 N 22 28 12 15 1011.0 1010.1 0.0
07/07:30am 25.9 25.1 17.0 58 5.6 N 17 20 9 11 1010.7 1009.7 0.0
07/07:00am 25.3 24.5 17.0 60 5.2 N 17 22 9 12 1010.4 1009.4 0.0
07/06:30am 23.8 22.2 16.6 64 4.4 NNE 20 26 11 14 1010.2 1009.2 0.0
07/06:00am 23.1 21.9 16.2 65 4.2 NNE 17 20 9 11 1009.8 1008.9 0.0
07/05:30am 23.0 21.8 16.1 65 4.2 NNE 17 20 9 11 1009.5 1008.6 0.0
07/05:00am 22.9 21.7 16.0 65 4.2 NNE 17 22 9 12 1009.2 1008.3 0.0
07/04:30am 22.5 23.2 16.1 67 3.9 NNE 7 9 4 5 1008.9 1008.0 0.0
07/04:00am 22.9 23.2 16.0 65 4.2 NNE 9 11 5 6 1008.7 1007.8 0.0
07/03:30am 23.4 23.3 16.0 63 4.5 NNE 11 13 6 7 1008.7 1007.8 0.0
07/03:00am 23.7 23.6 16.0 62 4.7 N 11 15 6 8 1008.6 1007.7 0.0
07/02:30am 24.2 23.3 15.9 59 5.1 NNE 15 19 8 10 1008.6 1007.7 0.0
07/02:00am 24.5 23.3 16.0 59 5.2 NNE 17 20 9 11 1008.7 1007.8 0.0
07/01:30am 24.5 23.9 15.7 58 5.4 N 13 17 7 9 1009.0 1008.1 0.0
07/01:00am 24.5 23.8 15.4 57 5.5 N 13 17 7 9 1009.1 1008.2 0.0
07/12:30am 24.9 23.8 15.2 54 5.9 N 15 19 8 10 1009.3 1008.4 0.0
07/12:00am 25.1 23.5 14.9 53 6.2 N 17 20 9 11 1009.5 1008.6 0.0
 
Date/Time
EST
Temp
°C
App
Temp
°C
Dew
Point
°C
Rel
Hum
%
Delta-T
°C
Wind Press
QNH
hPa
Press
MSL
hPa
Rain since
9am
mm
Dir  Spd
km/h
Gust
km/h
Spd
kts
Gust
kts
06/11:30pm 25.5 24.2 14.9 52 6.4 NNE 15 19 8 10 1009.7 1008.8 0.0
06/11:00pm 25.9 24.3 15.0 51 6.6 NNE 17 20 9 11 1009.8 1008.9 0.0
06/10:30pm 26.1 25.0 15.2 51 6.6 NNE 15 20 8 11 1009.8 1008.9 0.0
06/10:00pm 26.6 25.0 15.0 49 7.0 NNE 17 26 9 14 1009.6 1008.7 0.0
06/09:30pm 27.3 25.4 15.3 48 7.3 NE 19 28 10 15 1009.5 1008.6 0.0
06/09:00pm 27.6 26.5 15.3 47 7.5 NE 15 22 8 12 1009.3 1008.4 0.0
06/08:30pm 27.3 26.3 14.7 46 7.6 ENE 13 17 7 9 1008.7 1007.8 0.0
06/08:00pm 28.1 27.4 12.0 36 9.4 ESE 7 9 4 5 1008.2 1007.3 0.0
06/07:30pm 28.9 28.1 11.0 33 10.3 ENE 6 7 3 4 1007.9 1007.0 0.0
06/07:00pm 29.1 26.6 11.2 33 10.4 NE 15 19 8 10 1007.6 1006.7 0.0
06/06:47pm 29.6 27.1 11.2 32 10.6 N 15 30 8 16 1007.8 1006.9 0.0
06/06:30pm 29.5 26.7 11.5 32 10.5 S 17 24 9 13 1007.7 1006.8 0.0
06/06:16pm 28.4 24.3 12.7 38 9.3 SSW 26 33 14 18 1007.8 1006.9 0.0
06/06:00pm 29.6 25.9 11.6 33 10.5 SSW 22 32 12 17 1007.8 1006.9 0.0
06/05:33pm 30.3 25.3 10.8 30 11.2 SSW 28 43 15 23 1007.4 1006.5 0.0
06/05:30pm 30.4 25.4 10.9 30 11.3 SSW 28 43 15 23 1007.3 1006.4 0.0
06/05:23pm 31.6 27.9 10.3 27 12.3 SSW 20 30 11 16 1007.5 1006.6 0.0
06/05:00pm 31.8 26.1 9.9 26 12.6 SW 30 39 16 21 1007.1 1006.2 0.0
06/04:30pm 34.4 30.2 8.2 20 14.8 W 20 30 11 16 1006.9 1006.0 0.0
06/04:00pm 34.9 30.4 7.1 18 15.5 WNW 20 28 11 15 1007.1 1006.2 0.0
06/03:30pm 34.5 28.8 6.7 18 15.3 WNW 26 41 14 22 1007.5 1006.6 0.0
06/03:00pm 34.4 30.8 8.2 20 14.8 WSW 17 28 9 15 1007.7 1006.8 0.0
06/02:30pm 34.7 30.7 9.2 21 14.6 W 20 30 11 16 1007.9 1007.0 0.0
06/02:00pm 34.6 29.7 8.4 20 14.9 WNW 24 33 13 18 1008.3 1007.4 0.0
06/01:30pm 34.8 31.0 9.9 22 14.4 W 20 33 11 18 1008.8 1007.9 0.0
06/01:00pm 33.7 30.3 9.0 22 14.1 W 17 28 9 15 1009.1 1008.2 0.0
06/12:30pm 33.4 30.2 10.1 24 13.5 WSW 17 26 9 14 1009.5 1008.6 0.0
06/12:00pm 32.2 29.7 9.7 25 12.9 W 13 20 7 11 1009.9 1009.0 0.0
06/11:30am 30.9 27.5 9.2 26 12.2 NW 17 26 9 14 1010.4 1009.4 0.0
06/11:00am 31.7 27.0 9.3 25 12.7 WNW 24 37 13 20 1011.2 1010.3 0.0
06/10:30am 31.4 27.4 6.5 21 13.5 NW 17 24 9 13 1011.0 1010.1 0.0
06/10:00am 31.0 26.8 7.5 23 12.9 NNW 19 30 10 16 1010.8 1009.8 0.0
06/09:30am 30.7 26.3 6.6 22 13.0 N 19 28 10 15 1010.9 1009.9 0.0
06/09:00am 29.4 25.7 7.9 26 11.8 N 17 20 9 11 1011.0 1010.1 0.0
06/08:30am 27.7 25.4 9.0 31 10.3 N 11 17 6 9 1011.0 1010.1 0.0
06/08:00am 26.8 24.8 8.7 32 9.9 N 9 13 5 7 1010.9 1009.9 0.0
06/07:30am 25.3 23.5 9.6 37 8.7 NNE 9 11 5 6 1010.7 1009.7 0.0
06/07:00am 24.1 22.7 9.7 40 7.9 NNE 7 9 4 5 1010.5 1009.5 0.0
06/06:30am 23.9 22.7 9.5 40 7.9 NNE 6 7 3 4 1010.4 1009.4 0.0
06/06:00am 23.6 21.3 10.3 43 7.4 N 13 17 7 9 1011.0 1010.1 0.0
06/05:30am 23.3 21.2 8.2 38 8.0 NW 9 11 5 6 1010.7 1009.7 0.0
06/05:00am 24.3 21.4 6.6 32 9.2 WNW 11 13 6 7 1010.6 1009.6 0.0
06/04:30am 24.8 23.4 5.6 29 9.8 WSW 2 9 1 5 1009.8 1008.9 0.0
06/04:00am 25.0 22.4 4.2 26 10.4 SSE 7 11 4 6 1009.0 1008.1 0.0
06/03:30am 24.9 22.5 5.2 28 10.0 S 7 9 4 5 1008.6 1007.7 0.0
06/03:00am 24.8 22.6 5.1 28 10.0 SE 6 7 3 4 1008.6 1007.7 0.0
06/02:30am 25.3 22.1 3.3 24 10.8 WSW 9 11 5 6 1009.1 1008.2 0.0
06/02:00am 25.5 22.8 3.5 24 10.9 SW 7 7 4 4 1009.4 1008.5 0.0
06/01:30am 26.5 23.8 3.7 23 11.4 SSW 7 9 4 5 1009.9 1009.0 0.0
06/01:00am 27.1 23.8 2.2 20 12.2 S 9 11 5 6 1010.4 1009.4 0.0
06/12:30am 27.1 22.9 1.5 19 12.4 SSW 13 17 7 9 1010.8 1009.8 0.0
06/12:00am 26.6 22.8 1.8 20 12.0 SW 11 13 6 7 1011.2 1010.3 0.0
 
Date/Time
EST
Temp
°C
App
Temp
°C
Dew
Point
°C
Rel
Hum
%
Delta-T
°C
Wind Press
QNH
hPa
Press
MSL
hPa
Rain since
9am
mm
Dir  Spd
km/h
Gust
km/h
Spd
kts
Gust
kts
05/11:30pm 26.3 23.3 2.3 21 11.7 WSW 7 9 4 5 1011.5 1010.6 0.0
05/11:00pm 26.6 23.2 1.8 20 12.0 WSW 9 9 5 5 1011.6 1010.7 0.0
05/10:30pm 26.8 23.8 0.5 18 12.5 SSW 6 7 3 4 1011.5 1010.6 0.0
05/10:00pm 28.0 24.5 -1.0 15 13.5 S 7 9 4 5 1011.5 1010.6 0.0
05/09:30pm 28.5 24.3 -0.6 15 13.7 S 11 13 6 7 1011.3 1010.4 0.0
05/09:00pm 28.8 24.7 -0.4 15 13.8 SSW 11 13 6 7 1011.3 1010.4 0.0
05/08:30pm 29.6 25.0 -0.7 14 14.3 S 13 17 7 9 1011.1 1010.2 0.0
05/08:00pm 30.2 24.8 -1.2 13 14.8 S 17 20 9 11 1010.9 1009.9 0.0
05/07:30pm 30.6 24.7 -0.9 13 15.0 S 20 26 11 14 1010.9 1009.9 0.0
05/07:00pm 31.2 25.3 -0.5 13 15.2 S 20 28 11 15 1010.6 1009.6 0.0
05/06:30pm 31.7 26.3 -1.2 12 15.7 S 17 22 9 12 1010.3 1009.3 0.0
05/06:00pm 32.0 26.7 -0.9 12 15.8 SSW 17 20 9 11 1010.2 1009.2 0.0
05/05:30pm 32.6 27.7 -0.5 12 16.0 SW 15 22 8 12 1010.1 1009.1 0.0
05/05:00pm 32.5 27.2 -0.5 12 16.0 SW 17 24 9 13 1010.1 1009.1 0.0
05/04:30pm 33.1 28.5 -1.3 11 16.5 SSW 13 24 7 13 1009.9 1009.0 0.0
05/04:00pm 33.3 29.2 0.1 12 16.4 SSE 11 19 6 10 1010.1 1009.1 0.0
05/03:30pm 32.6 29.2 -0.5 12 16.0 SSW 7 20 4 11 1010.5 1009.5 0.0
05/03:00pm 33.4 29.7 0.1 12 16.4 S 9 15 5 8 1010.6 1009.6 0.0
05/02:30pm 32.4 28.4 0.5 13 15.7 NE 11 17 6 9 1010.8 1009.8 0.0
05/02:00pm 32.5 28.9 0.6 13 15.8 SSW 9 20 5 11 1011.2 1010.3 0.0
05/01:30pm 31.4 28.0 -0.3 13 15.3 SSE 7 15 4 8 1011.7 1010.8 0.0
05/01:00pm 31.8 27.7 0.0 13 15.5 NNE 11 22 6 12 1012.1 1011.2 0.0
05/12:30pm 32.0 27.9 2.1 15 15.1 ESE 13 28 7 15 1012.2 1011.3 0.0
05/12:00pm 30.4 26.1 0.9 15 14.4 E 13 22 7 12 1012.9 1012.0 0.0
05/11:30am 30.0 25.9 -0.4 14 14.5 SE 11 19 6 10 1013.2 1012.3 0.0
05/11:00am 29.7 24.5 0.3 15 14.2 ESE 17 24 9 13 1013.6 1012.7 0.0
05/10:30am 29.0 23.2 -0.2 15 13.9 E 20 28 11 15 1013.9 1013.0 0.0
05/10:00am 28.4 22.8 0.2 16 13.4 ESE 19 28 10 15 1014.1 1013.2 0.0
05/09:30am 27.9 22.1 -0.2 16 13.2 E 20 30 11 16 1014.2 1013.3 0.0
05/09:00am 27.0 21.4 1.4 19 12.3 E 20 30 11 16 1014.4 1013.5 0.0
05/08:30am 26.2 20.3 1.5 20 11.9 E 22 32 12 17 1014.4 1013.5 0.0
05/08:00am 24.9 19.0 1.7 22 11.1 ESE 22 30 12 16 1014.9 1014.0 0.0
05/07:30am 24.2 18.7 1.8 23 10.7 ESE 20 28 11 15 1014.6 1013.7 0.0
05/07:00am 23.8 18.4 1.4 23 10.5 ESE 19 26 10 14 1014.2 1013.3 0.0
05/06:30am 23.4 17.9 1.7 24 10.2 ESE 20 28 11 15 1014.3 1013.4 0.0
05/06:00am 23.8 17.2 2.0 24 10.4 SE 26 35 14 19 1014.2 1013.3 0.0
05/05:30am 24.0 17.8 2.2 24 10.4 SE 24 32 13 17 1013.7 1012.8 0.0
05/05:00am 24.2 18.8 2.4 24 10.5 SE 20 30 11 16 1013.7 1012.8 0.0
05/04:30am 24.5 19.2 3.2 25 10.4 SE 20 30 11 16 1013.3 1012.4 0.0
05/04:00am 24.6 19.4 3.3 25 10.5 SE 20 28 11 15 1013.1 1012.2 0.0
05/03:30am 25.0 19.7 3.0 24 10.8 SE 20 32 11 17 1012.8 1011.9 0.0
05/03:00am 25.5 21.1 4.6 26 10.6 SE 17 24 9 13 1012.7 1011.8 0.0
05/02:30am 25.9 21.0 4.9 26 10.7 SE 20 28 11 15 1012.7 1011.8 0.0
05/02:00am 26.3 21.4 5.3 26 10.8 SSE 20 28 11 15 1013.0 1012.1 0.0
05/01:30am 26.5 20.8 4.9 25 11.0 SSE 24 33 13 18 1013.3 1012.4 0.0
05/01:00am 26.8 21.8 4.6 24 11.3 SSE 20 28 11 15 1013.6 1012.7 0.0
05/12:30am 27.2 21.8 4.3 23 11.6 SSE 22 32 12 17 1013.7 1012.8 0.0
05/12:00am 27.5 22.7 4.5 23 11.7 S 19 26 10 14 1014.0 1013.1 0.0
 
Date/Time
EST
Temp
°C
App
Temp
°C
Dew
Point
°C
Rel
Hum
%
Delta-T
°C
Wind Press
QNH
hPa
Press
MSL
hPa
Rain since
9am
mm
Dir  Spd
km/h
Gust
km/h
Spd
kts
Gust
kts
04/11:30pm 28.0 22.9 4.3 22 12.1 SSE 20 28 11 15 1014.2 1013.3 0.0
04/11:00pm 28.5 22.9 3.4 20 12.7 SSE 22 28 12 15 1014.2 1013.3 0.0
04/10:30pm 29.0 23.9 3.1 19 13.0 SSE 19 26 10 14 1014.3 1013.4 0.0
04/10:00pm 29.6 22.7 2.8 18 13.5 S 28 39 15 21 1013.9 1013.0 0.0
04/09:30pm 30.3 23.2 3.4 18 13.7 S 30 39 16 21 1013.5 1012.6 0.0
04/09:00pm 31.0 24.2 3.1 17 14.2 S 28 37 15 20 1013.0 1012.1 0.0
04/08:30pm 31.7 25.6 2.8 16 14.7 SSE 24 32 13 17 1012.7 1011.8 0.0
04/08:00pm 32.4 26.4 3.4 16 15.0 S 24 33 13 18 1012.5 1011.6 0.0
04/07:30pm 33.1 26.7 3.0 15 15.5 S 26 33 14 18 1012.2 1011.3 0.0
04/07:00pm 33.8 27.3 2.6 14 16.1 S 26 33 14 18 1011.7 1010.8 0.0
04/06:30pm 34.7 28.3 3.3 14 16.4 S 26 35 14 19 1011.2 1010.3 0.0
04/06:00pm 35.4 29.9 3.9 14 16.7 SSE 22 28 12 15 1010.7 1009.7 0.0
04/05:30pm 35.7 29.5 4.1 14 16.8 S 26 35 14 19 1010.5 1009.5 0.0
04/05:00pm 36.4 30.1 3.6 13 17.4 S 26 33 14 18 1010.3 1009.3 0.0
04/04:30pm 37.3 31.5 4.3 13 17.8 S 24 43 13 23 1010.3 1009.3 0.0
04/04:00pm 36.7 31.2 3.8 13 17.5 SSW 22 33 12 18 1010.5 1009.5 0.0
04/03:30pm 37.4 32.4 4.4 13 17.8 SSW 20 35 11 19 1010.8 1009.8 0.0
04/03:00pm 36.9 31.8 4.0 13 17.6 S 20 30 11 16 1011.1 1010.2 0.0
04/02:30pm 36.8 30.5 3.9 13 17.6 SSW 26 35 14 19 1011.5 1010.6 0.0
04/02:00pm 37.2 31.7 4.2 13 17.7 S 22 33 12 18 1012.0 1011.1 0.0
04/01:30pm 36.9 31.8 4.0 13 17.6 S 20 35 11 19 1012.4 1011.5 0.0
04/01:00pm 35.9 30.8 3.2 13 17.2 S 19 28 10 15 1012.9 1012.0 0.0
04/12:30pm 35.4 30.3 3.9 14 16.7 SSW 20 28 11 15 1013.3 1012.4 0.0
04/12:00pm 35.0 29.4 3.5 14 16.5 S 22 35 12 19 1013.9 1013.0 0.0
04/11:30am 35.1 29.9 3.6 14 16.6 S 20 26 11 14 1014.1 1013.2 0.0
04/11:00am 34.3 29.9 4.9 16 15.7 S 17 28 9 15 1014.3 1013.4 0.0
04/10:30am 33.8 30.8 7.7 20 14.6 SE 13 22 7 12 1014.5 1013.6 0.0

Other formats

Comma delimited format used in spreadsheet applications
http://www.bom.gov.au/fwo/IDQ60801/IDQ60801.95492.axf

JavaScript Object Notation format (JSON) in row-major order
http://www.bom.gov.au/fwo/IDQ60801/IDQ60801.95492.json

Data quality

Most of these data are generated automatically and are frequently updated. Quality checks on data are not normally performed. It is possible for incorrect values to appear. Refer to information at About Latest Weather Observations and please check the disclaimer before using these data.